Terminal Aerodrome Forecast
Issued by NWS Corpus Christi, TX

Home | Current Version | Previous Version | Text Only | Print | Product List | Glossary On
Versions: 1 2 3 4 5 6 7 8 9 10 11 12 13 14 15 16 17 18 19
000
FTUS44 KCRP 021700
TAFCRP
TAF
KCRP 021735Z 0218/0318 02010KT 2SM -DZ OVC004
      TEMPO 0218/0222 3/4SM -DZ BR OVC002
     FM030100 03008KT 2SM -DZ BR OVC004
     FM030500 05007KT 1/2SM -RA FG OVC002
     FM031630 12005KT 3SM -DZ BR OVC008=

USA.gov is the U.S. government's official web portal to all federal, state and local government web resources and services.